This is the latest recevied weather packets stored in our database for station/object N4VTB-13. If no packets are shown the sender has not sent any weather packets the latest 10 day(s).
| Time | Temp. | Humidity | Pressure | Rain* | Wind** | Luminosity | Snow |
|---|---|---|---|---|---|---|---|
| 1778127076 | 12.22° C | 86% | 1021.8 hPa | 0 mm | - | 0 W/m² | - |
| 1778121076 | 12.78° C | 82% | 1021.2 hPa | 0 mm | - | 11 W/m² | - |
| 1778113296 | 13.89° C | 79% | 1021.4 hPa | 0 mm | - | 51 W/m² | - |
| 1778112075 | 13.89° C | 79% | 1021.3 hPa | 0 mm | - | 139 W/m² | - |
| 1778108475 | 13.89° C | 79% | 1021.5 hPa | 0 mm | - | 95 W/m² | - |
| 1778105477 | 13.33° C | 81% | 1021.7 hPa | 0 mm | - | 95 W/m² | - |
| 1778101277 | 13.33° C | 85% | 1021.6 hPa | 0 mm | - | 129 W/m² | - |
| 1778098277 | 13.33° C | 83% | 1021.6 hPa | 0 mm | - | 148 W/m² | - |
| 1778094077 | 12.78° C | 85% | 1021.2 hPa | 0 mm | - | 128 W/m² | - |
| 1778087477 | 12.22° C | 91% | 1021.1 hPa | 0 mm | - | 84 W/m² | - |
| 1778082096 | 12.22° C | 92% | 1020.4 hPa | 0 mm | - | 53 W/m² | - |
| 1778079076 | 11.67° C | 91% | 1020.3 hPa | 0 mm | - | 33 W/m² | - |
| 1778078476 | 11.67° C | 91% | 1020.4 hPa | 0 mm | - | 26 W/m² | - |
| 1778072476 | 11.67° C | 90% | 1019.6 hPa | 0 mm | - | 0 W/m² | - |
| 1778069476 | 11.67° C | 90% | 1019.4 hPa | 0 mm | - | 0 W/m² | - |
| 1778064076 | 11.67° C | 91% | 1019 hPa | 0 mm | - | 0 W/m² | - |
| 1778061676 | 11.67° C | 92% | 1018.5 hPa | 0 mm | - | 0 W/m² | - |
| 1778061076 | 11.67° C | 93% | 1018.3 hPa | 0 mm | - | 0 W/m² | - |
| 1778058676 | 11.67° C | 93% | 1018.2 hPa | 0 mm | - | 0 W/m² | - |
| 1778056276 | 11.67° C | 92% | 1017.9 hPa | 0 mm | - | 0 W/m² | - |
| 1778055076 | 11.67° C | 91% | 1017.9 hPa | 0 mm | - | 0 W/m² | - |
| 1778050875 | 12.78° C | 89% | 1017.7 hPa | 0 mm | - | 0 W/m² | - |
| 1778050276 | 12.78° C | 89% | 1017.5 hPa | 0 mm | - | 0 W/m² | - |
| 1778046696 | 13.33° C | 87% | 1016.9 hPa | 0 mm | - | 0 W/m² | - |
| 1778041276 | 13.89° C | 84% | 1016.1 hPa | 0 mm | - | 0 W/m² | - |
* Rain latest hour (hover to see other rain measurements)
** Current wind speed in m/s (hover to see current wind gust speed)